FW1373 Weather Reports


Display with metric or nautical units.
time (UTC)temp
F
wind
direction
speed
MPH
gust
MPH
rain 1hr
in
rain 24hr
in
rain mn
in
humidity
%
barometer
mb
20190917141616 82 101 2.0 4.0 0.02 0.06 0.03 69 1016.6
20190917134554 82 93 0.0 2.0 0.00 0.04 0.01 70 1016.2
20190917133045 81 116 0.0 0.0 0.01 0.04 0.01 73 1016.3
20190917130159 76 121 0.0 0.0 0.01 0.04 0.01 82 1016.4
20190917124705 74 121 0.0 0.0 0.01 0.04 0.01 84 1016.5
20190917123051 74 121 0.0 0.0 0.00 0.03 0.00 84 1016.4
20190917121546 74 121 0.0 0.0 0.00 0.03 0.00 84 1016.3
20190917114622 73 122 0.0 0.0 0.00 0.03 0.00 83 1016.1
20190917113023 74 122 0.0 0.0 0.00 0.03 0.00 81 1016.0
20190917111522 75 121 0.0 0.0 0.00 0.03 0.00 80 1015.8
20190917110200 75 122 0.0 0.0 0.00 0.03 0.00 79 1015.8
20190917104707 76 122 0.0 0.0 0.00 0.03 0.00 78 1015.8
20190917101546 76 124 0.0 0.0 0.00 0.03 0.00 77 1015.7
20190917100055 76 133 0.0 0.0 0.00 0.03 0.00 76 1015.7
20190917093039 77 133 0.0 0.0 0.00 0.03 0.00 73 1015.5
20190917091703 77 119 0.0 0.0 0.00 0.03 0.00 73 1015.6
20190917090121 78 153 0.0 1.0 0.00 0.03 0.00 72 1015.5
20190917083101 78 150 0.0 0.0 0.00 0.03 0.00 70 1015.6
20190917081556 78 173 0.0 1.0 0.00 0.03 0.00 70 1015.5
20190917080110 78 117 0.0 0.0 0.00 0.03 0.00 70 1015.5
20190917074525 79 117 0.0 0.0 0.00 0.03 0.00 69 1015.5
20190917073001 79 117 0.0 0.0 0.00 0.03 0.00 67 1015.4
20190917071649 80 117 0.0 1.0 0.00 0.03 0.00 66 1015.4
20190917070131 81 209 0.0 3.0 0.00 0.03 0.00 64 1015.4
20190917064613 81 130 0.0 3.0 0.00 0.03 0.00 63 1015.2
20190917063036 82 138 1.0 7.0 0.00 0.03 0.00 61 1015.3
20190917061549 83 140 1.0 5.0 0.00 0.03 0.00 59 1015.3
20190917060019 83 131 3.0 8.0 0.00 0.03 0.00 59 1015.2
20190917054509 82 110 0.0 0.0 0.00 0.03 0.00 60 1015.1
20190917053120 83 110 0.0 0.0 0.00 0.03 0.00 59 1015.1
20190917051635 83 110 0.0 0.0 0.00 0.03 0.00 60 1015.2
20190917050127 83 110 0.0 0.0 0.00 0.03 0.00 60 1015.2
20190917044558 83 118 0.0 0.0 0.00 0.03 0.03 59 1015.3
20190917043141 84 118 0.0 0.0 0.00 0.03 0.03 59 1015.2
20190917041538 84 118 0.0 0.0 0.00 0.03 0.03 58 1015.2
20190917040021 84 115 0.0 0.0 0.00 0.03 0.03 58 1015.4
20190917034509 85 115 0.0 0.0 0.00 0.03 0.03 56 1015.4
20190917033008 85 107 0.0 0.0 0.00 0.03 0.03 56 1015.4
20190917031657 85 107 0.0 0.0 0.00 0.03 0.03 54 1015.4
20190917030138 86 107 0.0 0.0 0.00 0.03 0.03 53 1015.5
20190917024625 87 122 0.0 1.0 0.00 0.03 0.03 52 1015.2
20190917023053 87 101 0.0 2.0 0.00 0.03 0.03 51 1015.2
20190917021541 88 105 0.0 3.0 0.00 0.03 0.03 50 1015.1
20190917020041 88 169 0.0 3.0 0.00 0.03 0.03 50 1015.1
20190917014522 88 119 0.0 4.0 0.00 0.03 0.03 50 1015.0
20190917013020 89 94 1.0 3.0 0.00 0.03 0.03 49 1015.0
20190917011526 89 94 0.0 4.0 0.00 0.03 0.03 48 1015.1
20190917010125 89 86 0.0 6.0 0.00 0.03 0.03 47 1015.0
20190917004741 90 94 1.0 6.0 0.00 0.03 0.03 47 1014.9
20190917003223 90 109 1.0 6.0 0.00 0.03 0.03 46 1014.9
20190917001610 91 115 1.0 8.0 0.00 0.03 0.03 45 1014.9
20190917000122 91 67 3.0 10.0 0.00 0.03 0.03 45 1014.8
20190916234648 92 107 3.0 9.0 0.00 0.03 0.03 44 1014.8
20190916233056 92 79 2.0 9.0 0.00 0.03 0.03 44 1014.7
20190916231552 93 55 1.0 6.0 0.00 0.03 0.03 42 1014.8
20190916223133 93 121 3.0 11.0 0.00 0.03 0.03 42 1014.8
20190916221702 94 303 0.0 11.0 0.00 0.03 0.03 42 1014.7
20190916220106 94 118 0.0 10.0 0.00 0.03 0.03 42 1014.9
20190916214548 95 115 5.0 11.0 0.00 0.03 0.03 40 1015.0
20190916213109 95 86 1.0 11.0 0.00 0.03 0.03 41 1015.0
20190916211603 95 78 3.0 10.0 0.00 0.03 0.03 41 1015.1
20190916210026 95 63 0.0 12.0 0.00 0.03 0.03 41 1015.3
20190916204503 94 88 2.0 9.0 0.00 0.03 0.03 41 1015.5
20190916203139 95 75 0.0 12.0 0.00 0.03 0.03 40 1015.6
20190916201651 94 120 0.0 9.0 0.00 0.03 0.03 40 1015.8
20190916200041 95 76 2.0 11.0 0.00 0.03 0.03 40 1016.0
20190916194546 95 79 1.0 10.0 0.00 0.03 0.03 40 1016.4
20190916191528 96 96 2.0 9.0 0.00 0.03 0.03 40 1016.7
20190916184505 94 145 4.0 10.0 0.00 0.03 0.03 42 1017.2
20190916183215 96 119 2.0 8.0 0.00 0.03 0.03 41 1017.1
20190916181702 94 190 3.0 6.0 0.00 0.03 0.03 43 1017.5
20190916180218 93 94 3.0 6.0 0.00 0.03 0.03 43 1017.6
20190916174625 93 74 6.0 10.0 0.00 0.03 0.03 45 1017.7
20190916173031 92 124 1.0 7.0 0.00 0.03 0.03 47 1017.8
20190916171529 93 94 2.0 7.0 0.00 0.03 0.03 46 1017.9
20190916164718 92 69 2.0 9.0 0.01 0.03 0.03 48 1018.4
20190916163207 92 53 0.0 6.0 0.01 0.03 0.03 49 1018.6
20190916161652 91 130 1.0 7.0 0.02 0.03 0.03 50 1018.5
20190916160128 91 103 0.0 3.0 0.01 0.02 0.02 50 1018.6
20190916154552 90 94 2.0 5.0 0.02 0.04 0.02 52 1018.6
20190916151532 89 123 0.0 3.0 0.01 0.03 0.01 57 1018.5
20190916144716 87 134 1.0 3.0 0.00 0.02 0.00 60 1018.3